sensor_id;sensor_type;location;lat;lon;timestamp;pressure;altitude;pressure_sealevel;temperature
16759;BMP280;8497;51.346;12.396;2024-03-23T00:53:39;99472.56;;;12.90
16759;BMP280;8497;51.346;12.396;2024-03-23T00:56:06;99477.66;;;12.92
16759;BMP280;8497;51.346;12.396;2024-03-23T00:58:34;99460.81;;;12.94
16759;BMP280;8497;51.346;12.396;2024-03-23T01:01:01;99454.91;;;12.93
16759;BMP280;8497;51.346;12.396;2024-03-23T01:03:31;99458.31;;;12.95
16759;BMP280;8497;51.346;12.396;2024-03-23T01:05:59;99458.38;;;12.98
16759;BMP280;8497;51.346;12.396;2024-03-23T01:08:27;99452.47;;;12.98
16759;BMP280;8497;51.346;12.396;2024-03-23T01:10:57;99446.50;;;12.94
16759;BMP280;8497;51.346;12.396;2024-03-23T01:13:25;99441.34;;;12.90
16759;BMP280;8497;51.346;12.396;2024-03-23T01:15:53;99432.00;;;12.84
16759;BMP280;8497;51.346;12.396;2024-03-23T01:18:27;99426.75;;;12.77
16759;BMP280;8497;51.346;12.396;2024-03-23T01:20:57;99435.06;;;12.70
16759;BMP280;8497;51.346;12.396;2024-03-23T01:23:25;99428.31;;;12.69
16759;BMP280;8497;51.346;12.396;2024-03-23T01:25:52;99423.91;;;12.61
16759;BMP280;8497;51.346;12.396;2024-03-23T01:28:20;99421.28;;;12.53
16759;BMP280;8497;51.346;12.396;2024-03-23T01:30:47;99411.88;;;12.48
16759;BMP280;8497;51.346;12.396;2024-03-23T01:33:15;99410.06;;;12.39
16759;BMP280;8497;51.346;12.396;2024-03-23T01:35:42;99406.53;;;12.32
16759;BMP280;8497;51.346;12.396;2024-03-23T01:38:11;99411.59;;;12.32
16759;BMP280;8497;51.346;12.396;2024-03-23T01:40:37;99406.44;;;12.27
16759;BMP280;8497;51.346;12.396;2024-03-23T01:43:07;99403.00;;;12.25
16759;BMP280;8497;51.346;12.396;2024-03-23T01:45:34;99392.03;;;12.23
16759;BMP280;8497;51.346;12.396;2024-03-23T01:48:03;99396.13;;;12.18
16759;BMP280;8497;51.346;12.396;2024-03-23T01:50:31;99396.00;;;12.12
16759;BMP280;8497;51.346;12.396;2024-03-23T01:53:02;99382.53;;;12.12
16759;BMP280;8497;51.346;12.396;2024-03-23T01:55:31;99396.81;;;12.11
16759;BMP280;8497;51.346;12.396;2024-03-23T01:58:00;99392.47;;;12.03
16759;BMP280;8497;51.346;12.396;2024-03-23T02:00:32;99385.56;;;11.96
16759;BMP280;8497;51.346;12.396;2024-03-23T02:03:22;99397.41;;;11.98
16759;BMP280;8497;51.346;12.396;2024-03-23T02:05:50;99389.78;;;11.95
16759;BMP280;8497;51.346;12.396;2024-03-23T02:08:18;99393.88;;;11.90
16759;BMP280;8497;51.346;12.396;2024-03-23T02:10:47;99395.47;;;11.86
16759;BMP280;8497;51.346;12.396;2024-03-23T02:13:16;99397.00;;;11.81
16759;BMP280;8497;51.346;12.396;2024-03-23T02:15:42;99388.44;;;11.73
16759;BMP280;8497;51.346;12.396;2024-03-23T02:18:10;99389.88;;;11.62
16759;BMP280;8497;51.346;12.396;2024-03-23T02:20:38;99393.22;;;11.61
16759;BMP280;8497;51.346;12.396;2024-03-23T02:23:13;99389.72;;;11.56
16759;BMP280;8497;51.346;12.396;2024-03-23T02:25:40;99379.56;;;11.53
16759;BMP280;8497;51.346;12.396;2024-03-23T02:28:08;99375.25;;;11.47
16759;BMP280;8497;51.346;12.396;2024-03-23T02:30:34;99367.50;;;11.41
16759;BMP280;8497;51.346;12.396;2024-03-23T02:33:02;99358.19;;;11.39
16759;BMP280;8497;51.346;12.396;2024-03-23T02:35:29;99349.75;;;11.37
16759;BMP280;8497;51.346;12.396;2024-03-23T02:37:56;99351.44;;;11.37
16759;BMP280;8497;51.346;12.396;2024-03-23T02:40:24;99339.66;;;11.37
16759;BMP280;8497;51.346;12.396;2024-03-23T02:42:52;99348.06;;;11.36
16759;BMP280;8497;51.346;12.396;2024-03-23T02:45:19;99346.38;;;11.37
16759;BMP280;8497;51.346;12.396;2024-03-23T02:47:46;99338.66;;;11.29
16759;BMP280;8497;51.346;12.396;2024-03-23T02:50:13;99332.91;;;11.35
16759;BMP280;8497;51.346;12.396;2024-03-23T02:52:41;99335.41;;;11.35
16759;BMP280;8497;51.346;12.396;2024-03-23T02:55:08;99336.28;;;11.37
16759;BMP280;8497;51.346;12.396;2024-03-23T02:57:37;99335.53;;;11.40
16759;BMP280;8497;51.346;12.396;2024-03-23T03:00:07;99332.25;;;11.44
16759;BMP280;8497;51.346;12.396;2024-03-23T03:02:37;99321.47;;;11.50
16759;BMP280;8497;51.346;12.396;2024-03-23T03:05:04;99323.97;;;11.47
16759;BMP280;8497;51.346;12.396;2024-03-23T03:07:33;99307.81;;;11.42
16759;BMP280;8497;51.346;12.396;2024-03-23T03:09:59;99299.31;;;11.37
16759;BMP280;8497;51.346;12.396;2024-03-23T03:12:27;99315.28;;;11.36
16759;BMP280;8497;51.346;12.396;2024-03-23T03:14:55;99324.69;;;11.44
16759;BMP280;8497;51.346;12.396;2024-03-23T03:17:25;99322.44;;;11.55
16759;BMP280;8497;51.346;12.396;2024-03-23T03:19:51;99316.72;;;11.63
16759;BMP280;8497;51.346;12.396;2024-03-23T03:22:22;99293.16;;;11.63
16759;BMP280;8497;51.346;12.396;2024-03-23T03:24:48;99289.00;;;11.65
16759;BMP280;8497;51.346;12.396;2024-03-23T03:27:16;99281.38;;;11.62
16759;BMP280;8497;51.346;12.396;2024-03-23T03:29:42;99275.31;;;11.54
16759;BMP280;8497;51.346;12.396;2024-03-23T03:32:12;99270.13;;;11.48
16759;BMP280;8497;51.346;12.396;2024-03-23T03:34:38;99259.00;;;11.40
16759;BMP280;8497;51.346;12.396;2024-03-23T03:37:06;99256.41;;;11.37
16759;BMP280;8497;51.346;12.396;2024-03-23T03:39:33;99259.78;;;11.36
16759;BMP280;8497;51.346;12.396;2024-03-23T03:42:01;99265.63;;;11.35
16759;BMP280;8497;51.346;12.396;2024-03-23T03:44:33;99258.91;;;11.36
16759;BMP280;8497;51.346;12.396;2024-03-23T03:47:00;99250.56;;;11.38
16759;BMP280;8497;51.346;12.396;2024-03-23T03:49:29;99243.88;;;11.40
16759;BMP280;8497;51.346;12.396;2024-03-23T03:51:57;99247.31;;;11.43
16759;BMP280;8497;51.346;12.396;2024-03-23T03:54:25;99234.03;;;11.50
16759;BMP280;8497;51.346;12.396;2024-03-23T03:56:55;99241.78;;;11.58
16759;BMP280;8497;51.346;12.396;2024-03-23T03:59:21;99237.75;;;11.67
16759;BMP280;8497;51.346;12.396;2024-03-23T04:01:49;99242.91;;;11.73
16759;BMP280;8497;51.346;12.396;2024-03-23T04:04:15;99237.94;;;11.78
16759;BMP280;8497;51.346;12.396;2024-03-23T04:06:47;99239.69;;;11.82
16759;BMP280;8497;51.346;12.396;2024-03-23T04:09:13;99237.25;;;11.85
16759;BMP280;8497;51.346;12.396;2024-03-23T04:11:43;99238.91;;;11.83
16759;BMP280;8497;51.346;12.396;2024-03-23T04:14:10;99230.59;;;11.89
16759;BMP280;8497;51.346;12.396;2024-03-23T04:16:37;99225.53;;;11.89
16759;BMP280;8497;51.346;12.396;2024-03-23T04:19:04;99212.03;;;11.86
16759;BMP280;8497;51.346;12.396;2024-03-23T04:21:35;99175.75;;;11.81
16759;BMP280;8497;51.346;12.396;2024-03-23T04:24:06;99176.44;;;11.73
16759;BMP280;8497;51.346;12.396;2024-03-23T04:26:41;99163.63;;;11.64
16759;BMP280;8497;51.346;12.396;2024-03-23T04:29:07;99171.13;;;11.58
16759;BMP280;8497;51.346;12.396;2024-03-23T04:31:38;99167.66;;;11.54
16759;BMP280;8497;51.346;12.396;2024-03-23T04:34:05;99154.97;;;11.48
16759;BMP280;8497;51.346;12.396;2024-03-23T04:36:32;99145.72;;;11.49
16759;BMP280;8497;51.346;12.396;2024-03-23T04:38:59;99146.44;;;11.45
16759;BMP280;8497;51.346;12.396;2024-03-23T04:41:29;99136.47;;;11.49
16759;BMP280;8497;51.346;12.396;2024-03-23T04:43:57;99142.44;;;11.54
16759;BMP280;8497;51.346;12.396;2024-03-23T04:46:25;99140.06;;;11.62
16759;BMP280;8497;51.346;12.396;2024-03-23T04:48:52;99141.00;;;11.67
16759;BMP280;8497;51.346;12.396;2024-03-23T04:51:23;99130.19;;;11.74
16759;BMP280;8497;51.346;12.396;2024-03-23T04:53:51;99130.19;;;11.74
16759;BMP280;8497;51.346;12.396;2024-03-23T04:56:18;99125.97;;;11.73
16759;BMP280;8497;51.346;12.396;2024-03-23T04:58:47;99126.88;;;11.78
16759;BMP280;8497;51.346;12.396;2024-03-23T05:01:14;99122.63;;;11.74
16759;BMP280;8497;51.346;12.396;2024-03-23T05:03:43;99115.00;;;11.71
16759;BMP280;8497;51.346;12.396;2024-03-23T05:06:09;99102.31;;;11.66
16759;BMP280;8497;51.346;12.396;2024-03-23T05:08:44;99080.38;;;11.64
16759;BMP280;8497;51.346;12.396;2024-03-23T05:11:12;99073.59;;;11.60
16759;BMP280;8497;51.346;12.396;2024-03-23T05:13:39;99063.53;;;11.61
16759;BMP280;8497;51.346;12.396;2024-03-23T05:16:08;99070.38;;;11.70
16759;BMP280;8497;51.346;12.396;2024-03-23T05:18:36;99077.19;;;11.74
16759;BMP280;8497;51.346;12.396;2024-03-23T05:21:02;99078.84;;;11.72
16759;BMP280;8497;51.346;12.396;2024-03-23T05:23:32;99062.81;;;11.70
16759;BMP280;8497;51.346;12.396;2024-03-23T05:25:59;99045.94;;;11.66
16759;BMP280;8497;51.346;12.396;2024-03-23T05:28:26;99046.00;;;11.69
16759;BMP280;8497;51.346;12.396;2024-03-23T05:30:53;99052.78;;;11.73
16759;BMP280;8497;51.346;12.396;2024-03-23T05:33:23;99055.34;;;11.76
16759;BMP280;8497;51.346;12.396;2024-03-23T05:35:57;99057.91;;;11.77
16759;BMP280;8497;51.346;12.396;2024-03-23T05:38:25;99055.41;;;11.79
16759;BMP280;8497;51.346;12.396;2024-03-23T05:40:54;99059.53;;;11.74
16759;BMP280;8497;51.346;12.396;2024-03-23T05:43:22;99057.06;;;11.77
16759;BMP280;8497;51.346;12.396;2024-03-23T05:45:54;99048.63;;;11.78
16759;BMP280;8497;51.346;12.396;2024-03-23T05:48:22;99047.84;;;11.80
16759;BMP280;8497;51.346;12.396;2024-03-23T05:50:52;99033.59;;;11.84
16759;BMP280;8497;51.346;12.396;2024-03-23T05:53:20;99011.69;;;11.80
16759;BMP280;8497;51.346;12.396;2024-03-23T05:55:47;99011.59;;;11.74
16759;BMP280;8497;51.346;12.396;2024-03-23T05:58:16;99013.31;;;11.78
16759;BMP280;8497;51.346;12.396;2024-03-23T06:00:44;99017.63;;;11.83
16759;BMP280;8497;51.346;12.396;2024-03-23T06:03:10;99026.91;;;11.84
16759;BMP280;8497;51.346;12.396;2024-03-23T06:05:40;99030.31;;;11.88
16759;BMP280;8497;51.346;12.396;2024-03-23T06:08:06;99026.13;;;11.89
16759;BMP280;8497;51.346;12.396;2024-03-23T06:10:35;99023.56;;;11.87
16759;BMP280;8497;51.346;12.396;2024-03-23T06:13:02;99010.72;;;11.72
16759;BMP280;8497;51.346;12.396;2024-03-23T06:15:30;99006.22;;;11.54
16759;BMP280;8497;51.346;12.396;2024-03-23T06:17:57;98998.56;;;11.48
16759;BMP280;8497;51.346;12.396;2024-03-23T06:20:25;98994.34;;;11.49
16759;BMP280;8497;51.346;12.396;2024-03-23T06:22:54;98985.94;;;11.50
16759;BMP280;8497;51.346;12.396;2024-03-23T06:25:21;98982.47;;;11.45
16759;BMP280;8497;51.346;12.396;2024-03-23T06:27:48;98984.88;;;11.38
16759;BMP280;8497;51.346;12.396;2024-03-23T06:30:15;98978.00;;;11.29
16759;BMP280;8497;51.346;12.396;2024-03-23T06:32:42;98960.19;;;11.20
16759;BMP280;8497;51.346;12.396;2024-03-23T06:35:12;98959.31;;;11.17
16759;BMP280;8497;51.346;12.396;2024-03-23T06:37:38;98966.91;;;11.18
16759;BMP280;8497;51.346;12.396;2024-03-23T06:40:09;98954.31;;;11.20
16759;BMP280;8497;51.346;12.396;2024-03-23T06:42:37;98966.13;;;11.21
16759;BMP280;8497;51.346;12.396;2024-03-23T06:45:05;98950.94;;;11.18
16759;BMP280;8497;51.346;12.396;2024-03-23T06:47:32;98933.28;;;11.18
16759;BMP280;8497;51.346;12.396;2024-03-23T06:50:02;98931.56;;;11.15
16759;BMP280;8497;51.346;12.396;2024-03-23T06:52:29;98915.50;;;11.10
16759;BMP280;8497;51.346;12.396;2024-03-23T06:54:59;98912.00;;;11.02
16759;BMP280;8497;51.346;12.396;2024-03-23T06:57:27;98907.72;;;10.98
16759;BMP280;8497;51.346;12.396;2024-03-23T06:59:59;98922.03;;;10.99
16759;BMP280;8497;51.346;12.396;2024-03-23T07:02:25;98907.63;;;10.93
16759;BMP280;8497;51.346;12.396;2024-03-23T07:04:53;98899.09;;;10.85
16759;BMP280;8497;51.346;12.396;2024-03-23T07:07:20;98891.41;;;10.79
16759;BMP280;8497;51.346;12.396;2024-03-23T07:09:47;98901.47;;;10.77
16759;BMP280;8497;51.346;12.396;2024-03-23T07:12:14;98897.25;;;10.75
16759;BMP280;8497;51.346;12.396;2024-03-23T07:14:43;98893.09;;;10.78
16759;BMP280;8497;51.346;12.396;2024-03-23T07:17:11;98897.31;;;10.78
16759;BMP280;8497;51.346;12.396;2024-03-23T07:19:39;98903.09;;;10.74
16759;BMP280;8497;51.346;12.396;2024-03-23T07:22:05;98901.31;;;10.70
16759;BMP280;8497;51.346;12.396;2024-03-23T07:24:33;98882.75;;;10.63
16759;BMP280;8497;51.346;12.396;2024-03-23T07:26:59;98863.44;;;10.62
16759;BMP280;8497;51.346;12.396;2024-03-23T07:29:30;98849.72;;;10.47
16759;BMP280;8497;51.346;12.396;2024-03-23T07:31:58;98872.16;;;10.35
16759;BMP280;8497;51.346;12.396;2024-03-23T07:34:26;98919.84;;;10.29
16759;BMP280;8497;51.346;12.396;2024-03-23T07:36:55;98936.94;;;10.45
16759;BMP280;8497;51.346;12.396;2024-03-23T07:39:23;98884.84;;;10.41
16759;BMP280;8497;51.346;12.396;2024-03-23T07:41:49;98885.81;;;10.06
16759;BMP280;8497;51.346;12.396;2024-03-23T07:44:17;98928.13;;;9.86
16759;BMP280;8497;51.346;12.396;2024-03-23T07:46:43;98954.84;;;9.79
16759;BMP280;8497;51.346;12.396;2024-03-23T07:49:13;98954.44;;;9.63
16759;BMP280;8497;51.346;12.396;2024-03-23T07:51:41;98959.75;;;9.40
16759;BMP280;8497;51.346;12.396;2024-03-23T07:54:09;98974.34;;;9.20
16759;BMP280;8497;51.346;12.396;2024-03-23T07:56:35;98965.59;;;9.07
16759;BMP280;8497;51.346;12.396;2024-03-23T07:59:03;98965.66;;;8.76
16759;BMP280;8497;51.346;12.396;2024-03-23T08:01:30;98978.81;;;8.38
16759;BMP280;8497;51.346;12.396;2024-03-23T08:03:57;98988.78;;;8.09
16759;BMP280;8497;51.346;12.396;2024-03-23T08:06:25;98979.97;;;7.94
16759;BMP280;8497;51.346;12.396;2024-03-23T08:08:55;98961.88;;;7.76
16759;BMP280;8497;51.346;12.396;2024-03-23T08:11:25;98968.03;;;7.59
16759;BMP280;8497;51.346;12.396;2024-03-23T08:13:54;98980.75;;;7.39
16759;BMP280;8497;51.346;12.396;2024-03-23T08:16:20;98973.38;;;7.19
16759;BMP280;8497;51.346;12.396;2024-03-23T08:18:51;98980.66;;;7.11
16759;BMP280;8497;51.346;12.396;2024-03-23T08:21:19;99003.94;;;7.09
16759;BMP280;8497;51.346;12.396;2024-03-23T08:23:47;99009.63;;;7.05
16759;BMP280;8497;51.346;12.396;2024-03-23T08:26:16;99017.47;;;7.14
16759;BMP280;8497;51.346;12.396;2024-03-23T08:28:43;99030.94;;;7.17
16759;BMP280;8497;51.346;12.396;2024-03-23T08:31:12;99041.06;;;7.20
16759;BMP280;8497;51.346;12.396;2024-03-23T08:33:40;99054.31;;;7.16
16759;BMP280;8497;51.346;12.396;2024-03-23T08:36:10;99055.94;;;7.16
16759;BMP280;8497;51.346;12.396;2024-03-23T08:38:40;99071.56;;;7.09
16759;BMP280;8497;51.346;12.396;2024-03-23T08:41:10;99078.81;;;7.01
16759;BMP280;8497;51.346;12.396;2024-03-23T08:43:41;99090.16;;;6.92
16759;BMP280;8497;51.346;12.396;2024-03-23T08:46:10;99113.25;;;6.83
16759;BMP280;8497;51.346;12.396;2024-03-23T08:48:40;99113.84;;;6.78
16759;BMP280;8497;51.346;12.396;2024-03-23T08:51:11;99138.88;;;6.78
16759;BMP280;8497;51.346;12.396;2024-03-23T08:53:40;99159.75;;;6.79
16759;BMP280;8497;51.346;12.396;2024-03-23T08:56:09;99154.97;;;6.84
16759;BMP280;8497;51.346;12.396;2024-03-23T08:58:38;99145.19;;;6.90
16759;BMP280;8497;51.346;12.396;2024-03-23T09:01:06;99151.97;;;6.93
16759;BMP280;8497;51.346;12.396;2024-03-23T09:03:34;99150.66;;;7.02
16759;BMP280;8497;51.346;12.396;2024-03-23T09:06:02;99162.06;;;7.18
16759;BMP280;8497;51.346;12.396;2024-03-23T09:08:35;99169.22;;;7.30
16759;BMP280;8497;51.346;12.396;2024-03-23T09:11:04;99178.28;;;7.50
16759;BMP280;8497;51.346;12.396;2024-03-23T09:13:35;99185.56;;;7.68
16759;BMP280;8497;51.346;12.396;2024-03-23T09:16:02;99194.97;;;7.73
16759;BMP280;8497;51.346;12.396;2024-03-23T09:18:32;99193.34;;;7.75
16759;BMP280;8497;51.346;12.396;2024-03-23T09:20:59;99185.31;;;7.85
16759;BMP280;8497;51.346;12.396;2024-03-23T09:23:28;99167.81;;;7.86
16759;BMP280;8497;51.346;12.396;2024-03-23T09:25:55;99166.78;;;7.80
16759;BMP280;8497;51.346;12.396;2024-03-23T09:28:23;99166.81;;;7.81
16759;BMP280;8497;51.346;12.396;2024-03-23T09:30:52;99159.38;;;8.09
16759;BMP280;8497;51.346;12.396;2024-03-23T09:33:19;99175.13;;;8.28
16759;BMP280;8497;51.346;12.396;2024-03-23T09:35:46;99183.69;;;8.35
16759;BMP280;8497;51.346;12.396;2024-03-23T09:38:14;99207.44;;;8.44
16759;BMP280;8497;51.346;12.396;2024-03-23T09:40:41;99235.53;;;8.59
16759;BMP280;8497;51.346;12.396;2024-03-23T09:43:10;99248.97;;;8.61
16759;BMP280;8497;51.346;12.396;2024-03-23T09:45:39;99263.84;;;8.55
16759;BMP280;8497;51.346;12.396;2024-03-23T09:48:09;99268.63;;;8.48
16759;BMP280;8497;51.346;12.396;2024-03-23T09:50:37;99276.09;;;8.46
16759;BMP280;8497;51.346;12.396;2024-03-23T09:53:07;99269.38;;;8.45
16759;BMP280;8497;51.346;12.396;2024-03-23T09:55:35;99252.56;;;8.43
16759;BMP280;8497;51.346;12.396;2024-03-23T09:58:03;99261.75;;;8.42
16759;BMP280;8497;51.346;12.396;2024-03-23T10:00:32;99279.28;;;8.41
16759;BMP280;8497;51.346;12.396;2024-03-23T10:03:00;99292.63;;;8.40
16759;BMP280;8497;51.346;12.396;2024-03-23T10:05:33;99297.91;;;8.47
16759;BMP280;8497;51.346;12.396;2024-03-23T10:08:00;99306.19;;;8.45
16759;BMP280;8497;51.346;12.396;2024-03-23T10:10:45;99333.53;;;8.37
16759;BMP280;8497;51.346;12.396;2024-03-23T10:13:23;99329.06;;;8.29
16759;BMP280;8497;51.346;12.396;2024-03-23T10:15:56;99337.59;;;8.11
16759;BMP280;8497;51.346;12.396;2024-03-23T10:18:24;99344.84;;;8.03
16759;BMP280;8497;51.346;12.396;2024-03-23T10:21:09;99349.69;;;7.99
16759;BMP280;8497;51.346;12.396;2024-03-23T10:23:37;99344.78;;;8.02
16759;BMP280;8497;51.346;12.396;2024-03-23T10:26:18;99349.13;;;8.06
16759;BMP280;8497;51.346;12.396;2024-03-23T10:28:55;99366.13;;;8.13
16759;BMP280;8497;51.346;12.396;2024-03-23T10:31:27;99383.13;;;8.20
16759;BMP280;8497;51.346;12.396;2024-03-23T10:33:54;99385.78;;;8.24
16759;BMP280;8497;51.346;12.396;2024-03-23T10:36:24;99395.94;;;8.27
16759;BMP280;8497;51.346;12.396;2024-03-23T10:38:54;99382.88;;;8.37
16759;BMP280;8497;51.346;12.396;2024-03-23T10:41:22;99391.75;;;8.27
16759;BMP280;8497;51.346;12.396;2024-03-23T10:43:52;99394.88;;;8.21
16759;BMP280;8497;51.346;12.396;2024-03-23T10:46:19;99403.75;;;8.34
16759;BMP280;8497;51.346;12.396;2024-03-23T10:48:46;99407.66;;;8.28
16759;BMP280;8497;51.346;12.396;2024-03-23T10:51:14;99414.47;;;8.09
16759;BMP280;8497;51.346;12.396;2024-03-23T10:53:42;99406.38;;;7.94
16759;BMP280;8497;51.346;12.396;2024-03-23T10:56:12;99420.88;;;8.01
16759;BMP280;8497;51.346;12.396;2024-03-23T10:58:45;99423.88;;;8.14
16759;BMP280;8497;51.346;12.396;2024-03-23T11:01:14;99445.06;;;8.21
16759;BMP280;8497;51.346;12.396;2024-03-23T11:03:45;99442.75;;;8.26
16759;BMP280;8497;51.346;12.396;2024-03-23T11:06:35;99437.00;;;8.52
16759;BMP280;8497;51.346;12.396;2024-03-23T11:09:05;99439.66;;;8.80
16759;BMP280;8497;51.346;12.396;2024-03-23T11:11:51;99435.03;;;8.92
16759;BMP280;8497;51.346;12.396;2024-03-23T11:14:22;99431.00;;;8.97
16759;BMP280;8497;51.346;12.396;2024-03-23T11:17:09;99437.34;;;9.11
16759;BMP280;8497;51.346;12.396;2024-03-23T11:19:37;99436.31;;;9.30
16759;BMP280;8497;51.346;12.396;2024-03-23T11:22:05;99430.06;;;9.44
16759;BMP280;8497;51.346;12.396;2024-03-23T11:24:33;99432.69;;;9.47
16759;BMP280;8497;51.346;12.396;2024-03-23T11:27:01;99436.03;;;9.48
16759;BMP280;8497;51.346;12.396;2024-03-23T11:29:30;99432.00;;;9.53
16759;BMP280;8497;51.346;12.396;2024-03-23T11:32:01;99430.19;;;9.75
16759;BMP280;8497;51.346;12.396;2024-03-23T11:34:29;99420.31;;;9.81
16759;BMP280;8497;51.346;12.396;2024-03-23T11:37:05;99421.44;;;9.90
16759;BMP280;8497;51.346;12.396;2024-03-23T11:39:33;99424.25;;;10.01
16759;BMP280;8497;51.346;12.396;2024-03-23T11:42:04;99416.44;;;10.19
16759;BMP280;8497;51.346;12.396;2024-03-23T11:44:30;99426.19;;;10.38
16759;BMP280;8497;51.346;12.396;2024-03-23T11:47:08;99437.94;;;10.67
16759;BMP280;8497;51.346;12.396;2024-03-23T11:49:35;99420.31;;;11.00
16759;BMP280;8497;51.346;12.396;2024-03-23T11:52:07;99414.56;;;11.40
16759;BMP280;8497;51.346;12.396;2024-03-23T11:54:35;99407.19;;;11.84
16759;BMP280;8497;51.346;12.396;2024-03-23T11:57:08;99403.13;;;11.90
16759;BMP280;8497;51.346;12.396;2024-03-23T11:59:36;99414.41;;;12.07
16759;BMP280;8497;51.346;12.396;2024-03-23T12:02:08;99401.38;;;12.27
16759;BMP280;8497;51.346;12.396;2024-03-23T12:04:36;99386.31;;;12.32
16759;BMP280;8497;51.346;12.396;2024-03-23T12:07:12;99380.44;;;12.34
16759;BMP280;8497;51.346;12.396;2024-03-23T12:09:43;99387.84;;;12.25
16759;BMP280;8497;51.346;12.396;2024-03-23T12:12:15;99378.44;;;12.17
16759;BMP280;8497;51.346;12.396;2024-03-23T12:14:42;99389.50;;;12.23
16759;BMP280;8497;51.346;12.396;2024-03-23T12:17:12;99388.00;;;12.32
16759;BMP280;8497;51.346;12.396;2024-03-23T12:19:40;99388.59;;;12.64
16759;BMP280;8497;51.346;12.396;2024-03-23T12:22:08;99377.44;;;12.97
16759;BMP280;8497;51.346;12.396;2024-03-23T12:24:35;99377.19;;;13.33
16759;BMP280;8497;51.346;12.396;2024-03-23T12:27:05;99377.50;;;13.01
16759;BMP280;8497;51.346;12.396;2024-03-23T12:29:32;99372.94;;;12.37
16759;BMP280;8497;51.346;12.396;2024-03-23T12:32:02;99383.03;;;11.96
16759;BMP280;8497;51.346;12.396;2024-03-23T12:34:29;99379.38;;;12.22
16759;BMP280;8497;51.346;12.396;2024-03-23T12:36:57;99379.16;;;12.99
16759;BMP280;8497;51.346;12.396;2024-03-23T12:39:29;99380.09;;;13.04
16759;BMP280;8497;51.346;12.396;2024-03-23T12:42:16;99380.78;;;12.96
16759;BMP280;8497;51.346;12.396;2024-03-23T12:45:04;99378.03;;;13.34
16759;BMP280;8497;51.346;12.396;2024-03-23T12:47:32;99370.94;;;13.12
16759;BMP280;8497;51.346;12.396;2024-03-23T12:50:02;99365.66;;;13.00
16759;BMP280;8497;51.346;12.396;2024-03-23T12:52:29;99377.56;;;13.04
16759;BMP280;8497;51.346;12.396;2024-03-23T12:54:59;99366.47;;;12.51
16759;BMP280;8497;51.346;12.396;2024-03-23T12:57:27;99371.00;;;12.24
16759;BMP280;8497;51.346;12.396;2024-03-23T12:59:56;99350.91;;;12.30
16759;BMP280;8497;51.346;12.396;2024-03-23T13:02:22;99344.59;;;12.53
16759;BMP280;8497;51.346;12.396;2024-03-23T13:04:51;99344.41;;;12.89
16759;BMP280;8497;51.346;12.396;2024-03-23T13:07:18;99346.25;;;12.98
16759;BMP280;8497;51.346;12.396;2024-03-23T13:09:47;99342.06;;;13.00
16759;BMP280;8497;51.346;12.396;2024-03-23T13:12:16;99332.13;;;13.10
16759;BMP280;8497;51.346;12.396;2024-03-23T13:14:47;99331.72;;;13.38
16759;BMP280;8497;51.346;12.396;2024-03-23T13:17:14;99319.56;;;13.75
16759;BMP280;8497;51.346;12.396;2024-03-23T13:19:42;99313.00;;;13.90
16759;BMP280;8497;51.346;12.396;2024-03-23T13:22:09;99313.00;;;13.92
16759;BMP280;8497;51.346;12.396;2024-03-23T13:24:38;99306.19;;;13.86
16759;BMP280;8497;51.346;12.396;2024-03-23T13:27:05;99310.53;;;13.95
16759;BMP280;8497;51.346;12.396;2024-03-23T13:29:40;99311.44;;;14.01
16759;BMP280;8497;51.346;12.396;2024-03-23T13:32:08;99298.06;;;14.13
16759;BMP280;8497;51.346;12.396;2024-03-23T13:34:36;99287.97;;;14.14
16759;BMP280;8497;51.346;12.396;2024-03-23T13:37:03;99285.63;;;14.32
16759;BMP280;8497;51.346;12.396;2024-03-23T13:39:30;99289.09;;;14.43
16759;BMP280;8497;51.346;12.396;2024-03-23T13:41:57;99292.53;;;14.48
16759;BMP280;8497;51.346;12.396;2024-03-23T13:44:25;99294.19;;;14.44
16759;BMP280;8497;51.346;12.396;2024-03-23T13:46:55;99295.03;;;14.43
16759;BMP280;8497;51.346;12.396;2024-03-23T13:49:28;99311.03;;;14.42
16759;BMP280;8497;51.346;12.396;2024-03-23T13:51:57;99304.69;;;14.03
16759;BMP280;8497;51.346;12.396;2024-03-23T13:54:25;99300.91;;;13.69
16759;BMP280;8497;51.346;12.396;2024-03-23T13:56:53;99313.72;;;13.20
16759;BMP280;8497;51.346;12.396;2024-03-23T13:59:22;99321.41;;;12.76
16759;BMP280;8497;51.346;12.396;2024-03-23T14:01:49;99367.56;;;12.22
16759;BMP280;8497;51.346;12.396;2024-03-23T14:04:17;99382.13;;;11.54
16759;BMP280;8497;51.346;12.396;2024-03-23T14:06:47;99366.56;;;11.01
16759;BMP280;8497;51.346;12.396;2024-03-23T14:09:15;99358.56;;;10.85
16759;BMP280;8497;51.346;12.396;2024-03-23T14:11:47;99351.00;;;11.19
16759;BMP280;8497;51.346;12.396;2024-03-23T14:14:15;99344.09;;;11.85
16759;BMP280;8497;51.346;12.396;2024-03-23T14:16:43;99350.81;;;12.24
16759;BMP280;8497;51.346;12.396;2024-03-23T14:19:30;99352.94;;;12.47
16759;BMP280;8497;51.346;12.396;2024-03-23T14:22:11;99339.59;;;12.56
16759;BMP280;8497;51.346;12.396;2024-03-23T14:24:56;99351.53;;;12.63
16759;BMP280;8497;51.346;12.396;2024-03-23T14:27:27;99350.09;;;12.32
16759;BMP280;8497;51.346;12.396;2024-03-23T14:29:56;99340.22;;;12.00
16759;BMP280;8497;51.346;12.396;2024-03-23T14:32:26;99382.81;;;11.84
16759;BMP280;8497;51.346;12.396;2024-03-23T14:35:02;99395.38;;;11.46
16759;BMP280;8497;51.346;12.396;2024-03-23T14:37:47;99424.38;;;10.63
16759;BMP280;8497;51.346;12.396;2024-03-23T14:40:15;99413.25;;;9.97
16759;BMP280;8497;51.346;12.396;2024-03-23T14:42:41;99418.13;;;9.65
16759;BMP280;8497;51.346;12.396;2024-03-23T14:45:09;99433.50;;;9.48
16759;BMP280;8497;51.346;12.396;2024-03-23T14:47:37;99443.38;;;9.42
16759;BMP280;8497;51.346;12.396;2024-03-23T14:50:07;99441.50;;;9.35
16759;BMP280;8497;51.346;12.396;2024-03-23T14:52:35;99448.22;;;9.36
16759;BMP280;8497;51.346;12.396;2024-03-23T14:55:07;99446.53;;;9.35
16759;BMP280;8497;51.346;12.396;2024-03-23T14:57:35;99449.28;;;9.17
16759;BMP280;8497;51.346;12.396;2024-03-23T15:00:02;99439.06;;;9.12
16759;BMP280;8497;51.346;12.396;2024-03-23T15:02:31;99440.16;;;9.19
16759;BMP280;8497;51.346;12.396;2024-03-23T15:04:58;99446.75;;;9.16
16759;BMP280;8497;51.346;12.396;2024-03-23T15:07:26;99434.97;;;9.15
16759;BMP280;8497;51.346;12.396;2024-03-23T15:09:54;99433.00;;;9.07
16759;BMP280;8497;51.346;12.396;2024-03-23T15:12:23;99447.81;;;8.98
16759;BMP280;8497;51.346;12.396;2024-03-23T15:14:49;99421.22;;;8.79
16759;BMP280;8497;51.346;12.396;2024-03-23T15:17:17;99404.41;;;8.78